Parker Lake, Missouri
Current Conditions -  °F | °C
As of 2:15 AM on Thursday 27 Nov 2014 (Local Time) from KFAM Reporting Station
Overcast Overcast  
Wind Chill: -4°   Ceiling: 800
Heat Index:   Visibility: 7mi
Dew Point: -1°   Wind: 14mph
Humidity: 87%   Direction: 320°NW
Pressure: 30.27"   Gusts: NA
Location:  37.7127°N, 89.8903°W
Report Text: KFAM 270815Z AUTO 32012KT 270V340 7SM OVC008 01/M01 A3027 RMK AO1
Loading
Personal Weather Stations






























Interactive Weather Map New forecast layout! Learn more

10-Day Weather Forecast

Advertisements
Track Severe Weather on mobile